createdAt,value
2016-07-15T00:00:35.500Z,1017.31
2016-07-15T00:01:35.503Z,1017.35
2016-07-15T00:02:35.510Z,1017.35
2016-07-15T00:03:35.510Z,1017.29
2016-07-15T00:04:35.515Z,1017.33
2016-07-15T00:05:35.519Z,1017.3
2016-07-15T00:06:35.521Z,1017.31
2016-07-15T00:07:35.527Z,1017.33
2016-07-15T00:08:35.736Z,1017.3
2016-07-15T00:09:35.535Z,1017.32
2016-07-15T00:10:35.538Z,1017.37
2016-07-15T00:11:35.541Z,1017.32
2016-07-15T00:12:35.547Z,1017.29
2016-07-15T00:13:35.550Z,1017.35
2016-07-15T00:14:35.554Z,1017.36
2016-07-15T00:15:35.556Z,1017.33
2016-07-15T00:16:35.562Z,1017.36
2016-07-15T00:17:36.568Z,1017.38
2016-07-15T00:18:35.570Z,1017.44
2016-07-15T00:19:35.575Z,1017.41
2016-07-15T00:20:35.581Z,1017.42
2016-07-15T00:21:35.584Z,1017.4
2016-07-15T00:22:35.586Z,1017.43
2016-07-15T00:23:35.592Z,1017.4
2016-07-15T00:24:35.596Z,1017.4
2016-07-15T00:25:35.600Z,1017.4
2016-07-15T00:26:35.604Z,1017.41
2016-07-15T00:27:35.609Z,1017.37
2016-07-15T00:28:35.612Z,1017.4
2016-07-15T00:29:35.617Z,1017.39
2016-07-15T00:30:35.628Z,1017.4
2016-07-15T00:31:35.628Z,1017.44
2016-07-15T00:32:36.581Z,1017.44
2016-07-15T00:33:35.635Z,1017.43
2016-07-15T00:34:35.638Z,1017.42
2016-07-15T00:35:35.644Z,1017.43
2016-07-15T00:36:35.647Z,1017.43
2016-07-15T00:37:35.652Z,1017.47
2016-07-15T00:38:35.659Z,1017.48
2016-07-15T00:39:35.661Z,1017.5
2016-07-15T00:40:35.665Z,1017.44
2016-07-15T00:41:35.668Z,1017.45
2016-07-15T00:42:35.673Z,1017.48
2016-07-15T00:43:35.679Z,1017.43
2016-07-15T00:44:35.681Z,1017.45
2016-07-15T00:45:35.684Z,1017.43
2016-07-15T00:46:35.688Z,1017.43
2016-07-15T00:47:35.692Z,1017.46
2016-07-15T00:48:35.696Z,1017.46
2016-07-15T00:49:35.699Z,1017.44
2016-07-15T00:50:35.703Z,1017.46
2016-07-15T00:51:35.707Z,1017.46
2016-07-15T00:52:35.711Z,1017.46
2016-07-15T00:53:35.716Z,1017.47
2016-07-15T00:54:36.219Z,1017.48
2016-07-15T00:55:35.724Z,1017.46
2016-07-15T00:56:35.727Z,1017.49
2016-07-15T00:57:35.732Z,1017.54
2016-07-15T00:58:35.736Z,1017.52
2016-07-15T00:59:35.742Z,1017.54
2016-07-15T01:00:35.744Z,1017.49
2016-07-15T01:01:35.748Z,1017.53
2016-07-15T01:02:35.750Z,1017.55
2016-07-15T01:03:35.757Z,1017.52
2016-07-15T01:04:35.761Z,1017.54
2016-07-15T01:05:35.763Z,1017.53
2016-07-15T01:06:35.770Z,1017.5
2016-07-15T01:07:35.775Z,1017.49
2016-07-15T01:08:35.776Z,1017.5
2016-07-15T01:09:35.780Z,1017.54
2016-07-15T01:10:35.784Z,1017.6
2016-07-15T01:11:35.788Z,1017.54
2016-07-15T01:12:35.789Z,1017.59
2016-07-15T01:13:35.796Z,1017.58
2016-07-15T01:14:35.800Z,1017.6
2016-07-15T01:15:35.804Z,1017.58
2016-07-15T01:16:36.109Z,1017.62
2016-07-15T01:17:35.812Z,1017.6
2016-07-15T01:18:35.815Z,1017.57
2016-07-15T01:19:35.820Z,1017.56
2016-07-15T01:20:35.823Z,1017.58
2016-07-15T01:21:35.828Z,1017.57
2016-07-15T01:22:35.834Z,1017.55
2016-07-15T01:23:35.835Z,1017.57
2016-07-15T01:24:35.839Z,1017.55
2016-07-15T01:25:35.844Z,1017.57
2016-07-15T01:26:35.849Z,1017.54
2016-07-15T01:27:35.852Z,1017.53
2016-07-15T01:28:35.856Z,1017.51
2016-07-15T01:29:35.861Z,1017.52
2016-07-15T01:30:35.864Z,1017.54
2016-07-15T01:31:35.870Z,1017.55
2016-07-15T01:32:35.924Z,1017.55
2016-07-15T01:33:35.879Z,1017.61
2016-07-15T01:34:35.884Z,1017.59
2016-07-15T01:35:35.887Z,1017.61
2016-07-15T01:36:35.893Z,1017.63
2016-07-15T01:37:35.896Z,1017.58
2016-07-15T01:38:35.901Z,1017.57
2016-07-15T01:39:35.905Z,1017.58
2016-07-15T01:40:35.909Z,1017.6
2016-07-15T01:41:35.914Z,1017.64
2016-07-15T01:42:35.917Z,1017.64
2016-07-15T01:43:35.921Z,1017.65
2016-07-15T01:44:35.926Z,1017.64
2016-07-15T01:45:35.930Z,1017.63
2016-07-15T01:46:35.934Z,1017.63
2016-07-15T01:47:35.939Z,1017.64
2016-07-15T01:48:35.944Z,1017.65
2016-07-15T01:49:35.946Z,1017.58
2016-07-15T01:50:35.951Z,1017.61
2016-07-15T01:51:35.955Z,1017.62
2016-07-15T01:52:35.961Z,1017.62
2016-07-15T01:53:35.964Z,1017.64
2016-07-15T01:54:35.967Z,1017.61
2016-07-15T01:55:35.973Z,1017.62
2016-07-15T01:56:35.974Z,1017.64
2016-07-15T01:57:35.981Z,1017.65
2016-07-15T01:58:35.988Z,1017.67
2016-07-15T01:59:35.991Z,1017.62
2016-07-15T02:00:35.993Z,1017.62
2016-07-15T02:01:35.998Z,1017.64
2016-07-15T02:02:37.129Z,1017.6
2016-07-15T02:03:36.007Z,1017.56
2016-07-15T02:04:36.010Z,1017.58
2016-07-15T02:05:36.017Z,1017.64
2016-07-15T02:06:36.020Z,1017.62
2016-07-15T02:07:36.024Z,1017.62
2016-07-15T02:08:36.029Z,1017.71
2016-07-15T02:09:36.033Z,1017.68
2016-07-15T02:10:36.037Z,1017.6
2016-07-15T02:11:36.041Z,1017.6
2016-07-15T02:12:36.046Z,1017.57
2016-07-15T02:13:36.050Z,1017.6
2016-07-15T02:14:36.054Z,1017.57
2016-07-15T02:15:36.057Z,1017.63
2016-07-15T02:16:36.062Z,1017.62
2016-07-15T02:17:36.067Z,1017.67
2016-07-15T02:18:36.071Z,1017.62
2016-07-15T02:19:36.077Z,1017.64
2016-07-15T02:20:36.082Z,1017.69
2016-07-15T02:21:36.086Z,1017.61
2016-07-15T02:22:36.089Z,1017.6
2016-07-15T02:23:36.094Z,1017.63
2016-07-15T02:24:37.211Z,1017.67
2016-07-15T02:25:36.102Z,1017.65
2016-07-15T02:26:36.107Z,1017.71
2016-07-15T02:27:36.111Z,1017.71
2016-07-15T02:28:36.117Z,1017.68
2016-07-15T02:29:36.121Z,1017.68
2016-07-15T02:30:36.127Z,1017.73
2016-07-15T02:31:36.131Z,1017.7
2016-07-15T02:32:36.137Z,1017.68
2016-07-15T02:33:36.139Z,1017.71
2016-07-15T02:34:36.145Z,1017.67
2016-07-15T02:35:36.149Z,1017.64
2016-07-15T02:36:36.151Z,1017.66
2016-07-15T02:37:36.158Z,1017.63
2016-07-15T02:38:36.161Z,1017.65
2016-07-15T02:39:36.168Z,1017.67
2016-07-15T02:40:36.170Z,1017.61
2016-07-15T02:41:36.175Z,1017.56
2016-07-15T02:42:36.182Z,1017.59
2016-07-15T02:43:36.183Z,1017.55
2016-07-15T02:44:36.188Z,1017.58
2016-07-15T02:45:36.190Z,1017.59
2016-07-15T02:46:36.194Z,1017.59
2016-07-15T02:47:36.197Z,1017.6
2016-07-15T02:48:36.203Z,1017.63
2016-07-15T02:49:36.206Z,1017.62
2016-07-15T02:50:36.213Z,1017.64
2016-07-15T02:51:36.215Z,1017.67
2016-07-15T02:52:36.221Z,1017.68
2016-07-15T02:53:36.226Z,1017.7
2016-07-15T02:54:36.231Z,1017.71
2016-07-15T02:55:36.235Z,1017.69
2016-07-15T02:56:36.240Z,1017.7
2016-07-15T02:57:36.245Z,1017.69
2016-07-15T02:58:36.248Z,1017.69
2016-07-15T02:59:36.554Z,1017.68
2016-07-15T03:00:36.259Z,1017.72
2016-07-15T03:01:36.268Z,1017.69
2016-07-15T03:02:36.268Z,1017.71
2016-07-15T03:03:36.272Z,1017.69
2016-07-15T03:04:36.276Z,1017.68
2016-07-15T03:05:36.282Z,1017.62
2016-07-15T03:06:36.287Z,1017.67
2016-07-15T03:07:36.292Z,1017.67
2016-07-15T03:08:36.297Z,1017.7
2016-07-15T03:09:36.301Z,1017.74
2016-07-15T03:10:36.305Z,1017.72
2016-07-15T03:11:36.309Z,1017.74
2016-07-15T03:12:36.316Z,1017.71
2016-07-15T03:13:36.319Z,1017.72
2016-07-15T03:14:36.323Z,1017.71
2016-07-15T03:15:36.328Z,1017.72
2016-07-15T03:16:36.332Z,1017.7
2016-07-15T03:17:36.336Z,1017.69
2016-07-15T03:18:36.341Z,1017.69
2016-07-15T03:19:36.347Z,1017.71
2016-07-15T03:20:36.350Z,1017.72
2016-07-15T03:21:36.404Z,1017.7
2016-07-15T03:22:36.358Z,1017.74
2016-07-15T03:23:36.364Z,1017.77
2016-07-15T03:24:36.369Z,1017.77
2016-07-15T03:25:36.372Z,1017.74
2016-07-15T03:26:36.376Z,1017.75
2016-07-15T03:27:36.380Z,1017.76
2016-07-15T03:28:36.385Z,1017.77
2016-07-15T03:29:36.389Z,1017.79
2016-07-15T03:30:36.393Z,1017.83
2016-07-15T03:31:36.396Z,1017.8
2016-07-15T03:32:36.400Z,1017.78
2016-07-15T03:33:36.406Z,1017.74
2016-07-15T03:34:36.410Z,1017.8
2016-07-15T03:35:36.413Z,1017.79
2016-07-15T03:36:36.468Z,1017.77
2016-07-15T03:37:36.421Z,1017.8
2016-07-15T03:38:36.427Z,1017.78
2016-07-15T03:39:36.430Z,1017.78
2016-07-15T03:40:36.438Z,1017.76
2016-07-15T03:41:36.440Z,1017.77
2016-07-15T03:42:36.442Z,1017.8
2016-07-15T03:43:36.449Z,1017.8
2016-07-15T03:44:36.450Z,1017.83
2016-07-15T03:45:37.159Z,1017.82
2016-07-15T03:46:36.461Z,1017.82
2016-07-15T03:47:36.465Z,1017.87
2016-07-15T03:48:36.469Z,1017.86
2016-07-15T03:49:36.474Z,1017.88
2016-07-15T03:50:36.479Z,1017.86
2016-07-15T03:51:36.483Z,1017.88
2016-07-15T03:52:36.488Z,1017.89
2016-07-15T03:53:36.492Z,1017.94
2016-07-15T03:54:36.497Z,1017.93
2016-07-15T03:55:36.504Z,1017.96
2016-07-15T03:56:36.509Z,1017.92
2016-07-15T03:57:36.512Z,1017.92
2016-07-15T03:58:36.517Z,1017.95
2016-07-15T03:59:36.522Z,1017.95
2016-07-15T04:00:36.526Z,1017.92
2016-07-15T04:01:36.531Z,1017.97
2016-07-15T04:02:36.535Z,1017.97
2016-07-15T04:03:36.541Z,1017.99
2016-07-15T04:04:36.544Z,1018.02
2016-07-15T04:05:36.550Z,1018
2016-07-15T04:06:36.553Z,1018.04
2016-07-15T04:07:36.809Z,1018.07
2016-07-15T04:08:36.562Z,1018
2016-07-15T04:09:36.567Z,1018.05
2016-07-15T04:10:36.571Z,1018.02
2016-07-15T04:11:36.575Z,1018.06
2016-07-15T04:12:36.579Z,1018.04
2016-07-15T04:13:36.584Z,1018.07
2016-07-15T04:14:36.586Z,1018.09
2016-07-15T04:15:36.589Z,1018.11
2016-07-15T04:16:36.593Z,1018.1
2016-07-15T04:17:36.599Z,1018.06
2016-07-15T04:18:36.604Z,1018.04
2016-07-15T04:19:36.607Z,1018.05
2016-07-15T04:20:36.612Z,1018.08
2016-07-15T04:21:36.618Z,1018.1
2016-07-15T04:22:36.623Z,1018.11
2016-07-15T04:23:36.627Z,1018.11
2016-07-15T04:24:36.632Z,1018.07
2016-07-15T04:25:36.638Z,1018.12
2016-07-15T04:26:36.642Z,1018.09
2016-07-15T04:27:36.646Z,1018.05
2016-07-15T04:28:36.650Z,1018.02
2016-07-15T04:29:36.657Z,1018.01
2016-07-15T04:30:36.661Z,1018.05
2016-07-15T04:31:37.668Z,1018.07
2016-07-15T04:32:36.677Z,1018.07
2016-07-15T04:33:36.673Z,1018.08
2016-07-15T04:34:36.680Z,1018.13
2016-07-15T04:35:36.684Z,1018.12
2016-07-15T04:36:36.690Z,1018.16
2016-07-15T04:37:36.744Z,1018.14
2016-07-15T04:38:36.699Z,1018.12
2016-07-15T04:39:36.704Z,1018.14
2016-07-15T04:40:36.707Z,1018.19
2016-07-15T04:41:36.712Z,1018.15
2016-07-15T04:42:36.717Z,1018.16
2016-07-15T04:43:36.721Z,1018.17
2016-07-15T04:44:36.726Z,1018.17
2016-07-15T04:45:36.731Z,1018.21
2016-07-15T04:46:36.735Z,1018.19
2016-07-15T04:47:36.740Z,1018.23
2016-07-15T04:48:36.746Z,1018.27
2016-07-15T04:49:36.750Z,1018.23
2016-07-15T04:50:36.756Z,1018.26
2016-07-15T04:51:36.760Z,1018.27
2016-07-15T04:52:36.765Z,1018.26
2016-07-15T04:53:37.420Z,1018.28
2016-07-15T04:54:36.775Z,1018.29
2016-07-15T04:55:36.780Z,1018.22
2016-07-15T04:56:36.784Z,1018.23
2016-07-15T04:57:36.788Z,1018.28
2016-07-15T04:58:36.794Z,1018.26
2016-07-15T04:59:36.797Z,1018.26
2016-07-15T05:00:36.803Z,1018.26
2016-07-15T05:01:36.809Z,1018.38
2016-07-15T05:02:36.810Z,1018.3
2016-07-15T05:03:36.817Z,1018.3
2016-07-15T05:04:36.821Z,1018.3
2016-07-15T05:05:36.824Z,1018.32
2016-07-15T05:06:36.830Z,1018.32
2016-07-15T05:07:36.835Z,1018.32
2016-07-15T05:08:36.889Z,1018.33
2016-07-15T05:09:36.843Z,1018.39
2016-07-15T05:10:36.847Z,1018.44
2016-07-15T05:11:36.850Z,1019.11
2016-07-15T05:12:36.855Z,1018.48
2016-07-15T05:13:36.859Z,1018.42
2016-07-15T05:14:36.862Z,1018.45
2016-07-15T05:15:37.992Z,1018.44
2016-07-15T05:16:36.871Z,1018.67
2016-07-15T05:17:36.876Z,1018.69
2016-07-15T05:18:36.879Z,1019.05
2016-07-15T05:19:36.885Z,1018.63
2016-07-15T05:20:36.890Z,1018.62
2016-07-15T05:21:36.894Z,1018.67
2016-07-15T05:22:36.899Z,1018.63
2016-07-15T05:23:36.904Z,1018.54
2016-07-15T05:25:36.913Z,1018.59
2016-07-15T05:26:36.918Z,1018.64
2016-07-15T05:27:36.921Z,1018.61
2016-07-15T05:28:36.927Z,1018.65
2016-07-15T05:29:36.932Z,1018.85
2016-07-15T05:30:36.935Z,1018.94
2016-07-15T05:31:36.940Z,1019.01
2016-07-15T05:32:36.943Z,1019
2016-07-15T05:33:36.949Z,1019.56
2016-07-15T05:34:36.954Z,1019.63
2016-07-15T05:35:36.959Z,1019.4
2016-07-15T05:36:36.964Z,1019.24
2016-07-15T05:37:36.971Z,1019.7
2016-07-15T05:38:36.977Z,1019.77
2016-07-15T05:39:36.983Z,1019.79
2016-07-15T05:40:36.989Z,1019.77
2016-07-15T05:41:36.999Z,1019.76
2016-07-15T05:42:37.003Z,1019.32
2016-07-15T05:43:37.007Z,1019.58
2016-07-15T05:44:37.015Z,1019.44
2016-07-15T05:45:37.022Z,1018.98
2016-07-15T05:46:37.026Z,1019.12
2016-07-15T05:47:37.035Z,1019.38
2016-07-15T05:48:37.041Z,1019.82
2016-07-15T05:49:37.048Z,1019.29
2016-07-15T05:50:37.053Z,1020.25
2016-07-15T05:51:37.061Z,1019.01
2016-07-15T05:52:37.919Z,1019.04
2016-07-15T05:53:37.074Z,1019.54
2016-07-15T05:54:37.080Z,1019.29
2016-07-15T05:55:37.086Z,1019.78
2016-07-15T05:56:37.095Z,1019.04
2016-07-15T05:57:37.098Z,1019.96
2016-07-15T05:58:37.104Z,1019.05
2016-07-15T05:59:37.111Z,1019
2016-07-15T06:00:37.119Z,1019.01
2016-07-15T06:01:37.124Z,1019.03
2016-07-15T06:02:37.131Z,1018.96
2016-07-15T06:03:37.137Z,1018.96
2016-07-15T06:04:37.141Z,1019.18
2016-07-15T06:05:37.199Z,1019.05
2016-07-15T06:06:37.154Z,1019.32
2016-07-15T06:07:37.161Z,1019.15
2016-07-15T06:08:37.165Z,1020.39
2016-07-15T06:09:37.171Z,1020.39
2016-07-15T06:10:37.175Z,1020.73
2016-07-15T06:11:37.181Z,1020.66
2016-07-15T06:12:37.186Z,1020.7
2016-07-15T06:13:37.193Z,1020.69
2016-07-15T06:14:37.550Z,1020.63
2016-07-15T06:15:37.205Z,1020.63
2016-07-15T06:16:37.212Z,1020.82
2016-07-15T06:17:37.220Z,1020.83
2016-07-15T06:18:37.226Z,1020.84
2016-07-15T06:19:37.231Z,1020.87
2016-07-15T06:20:37.239Z,1020.83
2016-07-15T06:21:37.247Z,1020.81
2016-07-15T06:22:37.255Z,1020.76
2016-07-15T06:23:37.259Z,1020.73
2016-07-15T06:24:37.267Z,1020.75
2016-07-15T06:25:37.274Z,1020.68
2016-07-15T06:26:37.281Z,1020.69
2016-07-15T06:27:37.289Z,1020.74
2016-07-15T06:28:37.297Z,1020.75
2016-07-15T06:29:37.303Z,1020.46
2016-07-15T06:30:37.311Z,1020.62
2016-07-15T06:31:37.317Z,1020.62
2016-07-15T06:32:37.326Z,1020.56
2016-07-15T06:33:37.331Z,1020.5
2016-07-15T06:34:37.338Z,1020.44
2016-07-15T06:35:37.357Z,1019.79
2016-07-15T06:36:37.353Z,1020.5
2016-07-15T06:37:37.360Z,1020.51
2016-07-15T06:38:37.370Z,1020.53
2016-07-15T06:39:37.379Z,1019.74
2016-07-15T06:40:37.386Z,1020.49
2016-07-15T06:41:37.391Z,1019.3
2016-07-15T06:42:37.400Z,1019.31
2016-07-15T06:43:37.409Z,1020.41
2016-07-15T06:44:37.417Z,1020.36
2016-07-15T06:45:37.425Z,1020.4
2016-07-15T06:46:37.432Z,1020.41
2016-07-15T06:47:37.441Z,1020.36
2016-07-15T06:48:37.448Z,1019.3
2016-07-15T06:49:37.456Z,1019.18
2016-07-15T06:50:37.465Z,1020.31
2016-07-15T06:51:37.473Z,1020.22
2016-07-15T06:52:37.479Z,1020.19
2016-07-15T06:53:37.488Z,1020.29
2016-07-15T06:54:37.496Z,1019.26
2016-07-15T06:55:37.508Z,1020.27
2016-07-15T06:56:37.511Z,1020.22
2016-07-15T06:57:37.518Z,1020.22
2016-07-15T06:58:37.527Z,1020.22
2016-07-15T06:59:37.534Z,1020.16
2016-07-15T07:00:38.042Z,1020.19
2016-07-15T07:01:37.549Z,1020.14
2016-07-15T07:02:37.557Z,1020.17
2016-07-15T07:03:37.564Z,1020.08
2016-07-15T07:04:37.571Z,1020.14
2016-07-15T07:05:37.579Z,1020.13
2016-07-15T07:06:37.587Z,1020.02
2016-07-15T07:07:37.594Z,1019.83
2016-07-15T07:08:37.601Z,1020.05
2016-07-15T07:09:37.610Z,1020.06
2016-07-15T07:10:37.617Z,1020.04
2016-07-15T07:11:37.624Z,1020.07
2016-07-15T07:12:37.632Z,1020.07
2016-07-15T07:13:37.641Z,1020.1
2016-07-15T07:14:37.650Z,1020.17
2016-07-15T07:15:37.920Z,1019.5
2016-07-15T07:16:37.682Z,1019.28
2016-07-15T07:17:37.677Z,1020.02
2016-07-15T07:18:37.682Z,1019.21
2016-07-15T07:19:37.691Z,1019.91
2016-07-15T07:20:37.699Z,1019.99
2016-07-15T07:22:37.715Z,1019.17
2016-07-15T07:23:37.722Z,1019.27
2016-07-15T07:24:37.729Z,1019.18
2016-07-15T07:25:37.734Z,1019.92
2016-07-15T07:26:37.743Z,1019.27
2016-07-15T07:27:37.752Z,1020.04
2016-07-15T07:28:37.761Z,1020.01
2016-07-15T07:29:37.773Z,1019.99
2016-07-15T07:30:37.776Z,1019.36
2016-07-15T07:31:37.785Z,1019.73
2016-07-15T07:32:37.793Z,1019.32
2016-07-15T07:33:37.800Z,1019.31
2016-07-15T07:34:37.810Z,1019.41
2016-07-15T07:35:37.818Z,1020.07
2016-07-15T07:36:37.824Z,1019.44
2016-07-15T07:37:37.834Z,1019.89
2016-07-15T07:38:37.840Z,1019.37
2016-07-15T07:39:37.849Z,1019.38
2016-07-15T07:40:37.857Z,1019.4
2016-07-15T07:41:37.864Z,1019.42
2016-07-15T07:42:37.871Z,1019.48
2016-07-15T07:43:37.879Z,1019.34
2016-07-15T07:44:37.886Z,1019.32
2016-07-15T07:45:37.892Z,1019.36
2016-07-15T07:46:38.801Z,1019.33
2016-07-15T07:47:37.905Z,1019.32
2016-07-15T07:48:37.913Z,1019.41
2016-07-15T07:49:37.918Z,1019.41
2016-07-15T07:50:37.924Z,1019.43
2016-07-15T07:51:37.930Z,1019.43
2016-07-15T07:52:37.936Z,1019.45
2016-07-15T07:53:37.941Z,1019.46
2016-07-15T07:54:37.947Z,1019.45
2016-07-15T07:55:37.953Z,1019.44
2016-07-15T07:56:37.957Z,1019.44
2016-07-15T07:57:37.964Z,1019.38
2016-07-15T07:58:37.969Z,1019.39
2016-07-15T07:59:37.975Z,1019.32
2016-07-15T08:00:37.980Z,1019.32
2016-07-15T08:01:37.985Z,1019.38
2016-07-15T08:02:37.990Z,1019.35
2016-07-15T08:03:37.997Z,1019.34
2016-07-15T08:04:38.004Z,1019.36
2016-07-15T08:05:38.008Z,1019.4
2016-07-15T08:06:38.014Z,1019.36
2016-07-15T08:07:38.019Z,1019.41
2016-07-15T08:08:38.226Z,1019.33
2016-07-15T08:09:38.032Z,1019.34
2016-07-15T08:10:38.038Z,1019.37
2016-07-15T08:11:38.045Z,1019.35
2016-07-15T08:12:38.400Z,1019.38
2016-07-15T08:13:38.057Z,1019.39
2016-07-15T08:14:38.062Z,1019.4
2016-07-15T08:15:38.067Z,1019.34
2016-07-15T08:16:38.072Z,1019.35
2016-07-15T08:17:38.076Z,1019.34
2016-07-15T08:18:38.083Z,1019.35
2016-07-15T08:19:38.089Z,1019.42
2016-07-15T08:20:38.093Z,1019.46
2016-07-15T08:21:38.099Z,1019.39
2016-07-15T08:22:38.105Z,1019.39
2016-07-15T08:23:38.110Z,1019.34
2016-07-15T08:24:38.118Z,1019.36
2016-07-15T08:25:38.122Z,1019.44
2016-07-15T08:26:38.127Z,1019.44
2016-07-15T08:27:38.132Z,1019.44
2016-07-15T08:28:38.138Z,1019.43
2016-07-15T08:29:38.144Z,1019.41
2016-07-15T08:30:38.151Z,1019.46
2016-07-15T08:31:38.157Z,1019.42
2016-07-15T08:32:39.213Z,1019.43
2016-07-15T08:33:38.168Z,1019.39
2016-07-15T08:34:38.172Z,1019.43
2016-07-15T08:35:38.180Z,1019.4
2016-07-15T08:36:38.186Z,1019.48
2016-07-15T08:37:38.192Z,1019.52
2016-07-15T08:38:38.197Z,1019.44
2016-07-15T08:39:38.398Z,1019.48
2016-07-15T08:40:38.217Z,1019.5
2016-07-15T08:41:38.211Z,1019.52
2016-07-15T08:42:38.217Z,1019.53
2016-07-15T08:43:38.222Z,1019.56
2016-07-15T08:44:38.226Z,1019.54
2016-07-15T08:45:38.231Z,1019.53
2016-07-15T08:46:38.236Z,1019.53
2016-07-15T08:47:38.242Z,1019.54
2016-07-15T08:48:38.248Z,1019.52
2016-07-15T08:49:38.250Z,1019.53
2016-07-15T08:50:38.255Z,1019.55
2016-07-15T08:51:38.259Z,1019.61
2016-07-15T08:52:38.265Z,1019.61
2016-07-15T08:53:38.269Z,1019.64
2016-07-15T08:54:39.426Z,1019.66
2016-07-15T08:55:38.279Z,1019.65
2016-07-15T08:56:38.282Z,1019.64
2016-07-15T08:57:38.288Z,1019.66
2016-07-15T08:58:38.292Z,1019.68
2016-07-15T08:59:38.297Z,1019.75
2016-07-15T09:00:38.302Z,1019.68
2016-07-15T09:01:38.308Z,1019.67
2016-07-15T09:02:38.312Z,1019.68
2016-07-15T09:03:38.317Z,1019.7
2016-07-15T09:04:38.321Z,1019.67
2016-07-15T09:05:38.326Z,1019.69
2016-07-15T09:06:38.331Z,1019.69
2016-07-15T09:07:38.334Z,1019.65
2016-07-15T09:08:38.341Z,1019.65
2016-07-15T09:09:38.346Z,1019.7
2016-07-15T09:10:38.351Z,1019.71
2016-07-15T09:11:38.354Z,1019.7
2016-07-15T09:12:38.360Z,1019.68
2016-07-15T09:13:38.364Z,1019.69
2016-07-15T09:14:38.371Z,1019.7
2016-07-15T09:15:38.375Z,1019.71
2016-07-15T09:16:39.281Z,1019.7
2016-07-15T09:17:38.386Z,1019.73
2016-07-15T09:18:38.389Z,1019.7
2016-07-15T09:19:38.395Z,1019.69
2016-07-15T09:20:38.401Z,1019.72
2016-07-15T09:21:38.405Z,1019.7
2016-07-15T09:22:38.408Z,1019.74
2016-07-15T09:23:38.414Z,1019.73
2016-07-15T09:24:38.419Z,1019.77
2016-07-15T09:25:38.424Z,1019.76
2016-07-15T09:26:38.429Z,1019.79
2016-07-15T09:27:38.433Z,1019.81
2016-07-15T09:28:38.490Z,1019.79
2016-07-15T09:29:38.443Z,1019.78
2016-07-15T09:30:38.448Z,1019.76
2016-07-15T09:31:39.307Z,1019.78
2016-07-15T09:32:38.459Z,1019.78
2016-07-15T09:33:38.465Z,1019.81
2016-07-15T09:34:38.469Z,1019.8
2016-07-15T09:35:38.475Z,1019.76
2016-07-15T09:36:38.479Z,1019.77
2016-07-15T09:37:38.485Z,1019.69
2016-07-15T09:38:38.489Z,1019.73
2016-07-15T09:39:38.497Z,1019.69
2016-07-15T09:40:38.498Z,1019.65
2016-07-15T09:41:38.504Z,1019.65
2016-07-15T09:42:38.509Z,1019.64
2016-07-15T09:43:38.512Z,1019.62
2016-07-15T09:44:38.516Z,1019.55
2016-07-15T09:45:38.521Z,1019.58
2016-07-15T09:46:38.527Z,1019.61
2016-07-15T09:47:38.530Z,1019.62
2016-07-15T09:48:38.536Z,1019.64
2016-07-15T09:49:38.540Z,1019.54
2016-07-15T09:50:38.545Z,1019.58
2016-07-15T09:51:38.550Z,1019.51
2016-07-15T09:52:38.554Z,1019.51
2016-07-15T09:53:38.961Z,1019.51
2016-07-15T09:54:38.566Z,1019.47
2016-07-15T09:55:38.570Z,1019.5
2016-07-15T09:56:38.577Z,1019.48
2016-07-15T09:57:38.583Z,1019.47
2016-07-15T09:58:38.587Z,1019.48
2016-07-15T09:59:38.598Z,1019.44
2016-07-15T10:00:38.599Z,1019.42
2016-07-15T10:01:38.605Z,1019.41
2016-07-15T10:02:38.619Z,1019.45
2016-07-15T10:03:38.631Z,1019.4
2016-07-15T10:04:38.641Z,1019.44
2016-07-15T10:05:38.639Z,1019.46
2016-07-15T10:06:38.636Z,1019.45
2016-07-15T10:07:38.711Z,1019.54
2016-07-15T10:08:38.753Z,1019.48
2016-07-15T10:09:38.664Z,1019.54
2016-07-15T10:10:38.658Z,1019.51
2016-07-15T10:11:38.664Z,1019.52
2016-07-15T10:12:38.673Z,1019.49
2016-07-15T10:13:38.677Z,1019.49
2016-07-15T10:14:38.744Z,1019.56
2016-07-15T10:15:38.990Z,1019.51
2016-07-15T10:16:38.693Z,1019.55
2016-07-15T10:17:38.700Z,1019.51
2016-07-15T10:18:38.707Z,1019.53
2016-07-15T10:19:38.713Z,1019.53
2016-07-15T10:20:38.720Z,1019.52
2016-07-15T10:21:38.724Z,1019.5
2016-07-15T10:22:38.731Z,1019.5
2016-07-15T10:23:38.738Z,1019.41
2016-07-15T10:24:38.741Z,1019.44
2016-07-15T10:25:38.749Z,1019.49
2016-07-15T10:26:38.754Z,1019.45
2016-07-15T10:27:38.759Z,1019.41
2016-07-15T10:28:38.764Z,1019.43
2016-07-15T10:29:38.770Z,1019.49
2016-07-15T10:30:38.776Z,1019.54
2016-07-15T10:31:38.782Z,1019.53
2016-07-15T10:32:38.788Z,1019.47
2016-07-15T10:33:38.795Z,1019.51
2016-07-15T10:34:38.800Z,1019.54
2016-07-15T10:35:38.810Z,1019.45
2016-07-15T10:36:38.812Z,1019.4
2016-07-15T10:37:38.817Z,1019.38
2016-07-15T10:38:38.824Z,1019.32
2016-07-15T10:39:39.911Z,1019.43
2016-07-15T10:40:38.834Z,1019.43
2016-07-15T10:41:38.842Z,1019.41
2016-07-15T10:42:38.845Z,1019.4
2016-07-15T10:43:38.851Z,1019.33
2016-07-15T10:44:38.856Z,1019.4
2016-07-15T10:45:38.863Z,1019.42
2016-07-15T10:46:38.867Z,1019.43
2016-07-15T10:47:39.026Z,1019.41
2016-07-15T10:48:38.878Z,1019.4
2016-07-15T10:49:38.885Z,1019.4
2016-07-15T10:50:38.891Z,1019.44
2016-07-15T10:51:38.896Z,1019.39
2016-07-15T10:52:38.902Z,1019.42
2016-07-15T10:53:38.906Z,1019.36
2016-07-15T10:54:38.912Z,1019.4
2016-07-15T10:55:38.924Z,1019.44
2016-07-15T10:56:38.924Z,1019.44
2016-07-15T10:57:38.929Z,1019.43
2016-07-15T10:58:38.934Z,1019.46
2016-07-15T10:59:38.940Z,1019.42
2016-07-15T11:00:38.945Z,1019.36
2016-07-15T11:01:39.803Z,1019.36
2016-07-15T11:02:38.958Z,1019.33
2016-07-15T11:03:38.964Z,1019.37
2016-07-15T11:04:38.968Z,1019.42
2016-07-15T11:05:38.974Z,1019.4
2016-07-15T11:06:38.981Z,1019.37
2016-07-15T11:07:38.986Z,1019.34
2016-07-15T11:08:38.992Z,1019.41
2016-07-15T11:09:38.998Z,1019.42
2016-07-15T11:10:39.003Z,1019.39
2016-07-15T11:11:39.008Z,1019.46
2016-07-15T11:12:39.016Z,1019.41
2016-07-15T11:13:39.019Z,1019.45
2016-07-15T11:14:39.076Z,1019.39
2016-07-15T11:15:39.032Z,1019.34
2016-07-15T11:16:39.118Z,1019.31
2016-07-15T11:17:39.155Z,1019.32
2016-07-15T11:18:39.049Z,1019.31
2016-07-15T11:19:39.056Z,1019.31
2016-07-15T11:20:39.058Z,1019.33
2016-07-15T11:21:39.066Z,1019.35
2016-07-15T11:22:39.071Z,1019.37
2016-07-15T11:23:39.875Z,1019.38
2016-07-15T11:24:39.130Z,1019.33
2016-07-15T11:25:39.087Z,1019.32
2016-07-15T11:26:39.091Z,1019.3
2016-07-15T11:27:39.097Z,1019.35
2016-07-15T11:28:39.102Z,1019.26
2016-07-15T11:29:39.108Z,1019.36
2016-07-15T11:30:39.115Z,1019.42
2016-07-15T11:31:39.120Z,1019.4
2016-07-15T11:32:39.126Z,1019.39
2016-07-15T11:33:39.134Z,1019.38
2016-07-15T11:34:39.135Z,1019.34
2016-07-15T11:35:39.142Z,1019.38
2016-07-15T11:36:39.148Z,1019.37
2016-07-15T11:37:39.152Z,1019.42
2016-07-15T11:38:39.157Z,1019.4
2016-07-15T11:39:39.166Z,1019.41
2016-07-15T11:40:39.170Z,1019.42
2016-07-15T11:41:39.176Z,1019.38
2016-07-15T11:42:39.180Z,1019.34
2016-07-15T11:43:39.187Z,1019.37
2016-07-15T11:44:39.192Z,1019.41
2016-07-15T11:45:39.805Z,1019.37
2016-07-15T11:46:39.205Z,1019.37
2016-07-15T11:47:39.212Z,1019.37
2016-07-15T11:48:39.217Z,1019.34
2016-07-15T11:49:39.273Z,1019.33
2016-07-15T11:50:39.229Z,1019.33
2016-07-15T11:51:39.235Z,1019.32
2016-07-15T11:52:39.241Z,1019.35
2016-07-15T11:53:39.247Z,1019.35
2016-07-15T11:54:39.253Z,1019.35
2016-07-15T11:55:39.258Z,1019.34
2016-07-15T11:56:39.264Z,1019.36
2016-07-15T11:57:39.270Z,1019.35
2016-07-15T11:58:39.276Z,1019.34
2016-07-15T11:59:39.281Z,1019.39
2016-07-15T12:00:39.937Z,1019.36
2016-07-15T12:01:39.293Z,1019.3
2016-07-15T12:02:39.298Z,1019.33
2016-07-15T12:03:39.389Z,1019.34
2016-07-15T12:04:39.309Z,1019.38
2016-07-15T12:05:39.316Z,1019.36
2016-07-15T12:06:39.322Z,1019.36
2016-07-15T12:07:39.327Z,1019.3
2016-07-15T12:08:39.334Z,1019.32
2016-07-15T12:09:39.338Z,1019.39
2016-07-15T12:10:39.343Z,1019.45